createdAt,value
2022-11-28T00:04:35.710Z,5.01
2022-11-28T00:09:38.802Z,5.01
2022-11-28T00:14:42.447Z,4.90
2022-11-28T00:19:45.707Z,4.96
2022-11-28T00:24:49.301Z,4.95
2022-11-28T00:29:53.065Z,4.85
2022-11-28T00:34:56.872Z,4.67
2022-11-28T00:40:00.551Z,4.53
2022-11-28T00:45:04.438Z,4.29
2022-11-28T00:50:08.466Z,4.25
2022-11-28T00:55:12.065Z,4.12
2022-11-28T01:00:16.060Z,3.96
2022-11-28T01:05:19.329Z,3.72
2022-11-28T01:10:23.149Z,3.67
2022-11-28T01:15:27.008Z,3.60
2022-11-28T01:20:30.141Z,3.47
2022-11-28T01:25:33.778Z,3.34
2022-11-28T01:30:36.934Z,3.18
2022-11-28T01:35:40.508Z,3.08
2022-11-28T01:40:47.176Z,3.04
2022-11-28T01:45:51.685Z,3.00
2022-11-28T01:51:00.758Z,3.00
2022-11-28T01:56:14.047Z,2.85
2022-11-28T02:01:18.036Z,2.83
2022-11-28T02:06:24.629Z,2.75
2022-11-28T02:12:05.226Z,2.68
2022-11-28T02:17:45.588Z,2.50
2022-11-28T02:23:24.715Z,2.44
2022-11-28T02:29:02.198Z,2.35
2022-11-28T02:34:23.496Z,2.18
2022-11-28T02:39:32.198Z,2.12
2022-11-28T02:44:48.405Z,1.97
2022-11-28T02:50:07.666Z,1.85
2022-11-28T02:55:12.586Z,1.82
2022-11-28T03:00:25.384Z,1.79
2022-11-28T03:05:56.060Z,1.76
2022-11-28T03:10:59.707Z,1.74
2022-11-28T03:16:28.253Z,1.77
2022-11-28T03:21:41.852Z,1.65
2022-11-28T03:26:53.745Z,1.62
2022-11-28T03:32:02.105Z,1.62
2022-11-28T03:37:11.836Z,1.60
2022-11-28T03:42:22.650Z,1.60
2022-11-28T03:47:31.266Z,1.64
2022-11-28T03:52:41.633Z,1.58
2022-11-28T03:57:59.189Z,1.59
2022-11-28T04:03:11.148Z,1.54
2022-11-28T04:08:32.852Z,1.58
2022-11-28T04:13:53.187Z,1.49
2022-11-28T04:19:04.012Z,1.35
2022-11-28T04:24:13.772Z,1.31
2022-11-28T04:29:21.247Z,1.21
2022-11-28T04:34:26.580Z,1.19
2022-11-28T04:39:33.077Z,1.11
2022-11-28T04:44:44.651Z,1.21
2022-11-28T04:49:48.181Z,1.17
2022-11-28T04:55:15.854Z,1.21
2022-11-28T05:00:21.426Z,1.22
2022-11-28T05:05:28.902Z,1.22
2022-11-28T05:10:32.495Z,1.14
2022-11-28T05:15:35.522Z,1.11
2022-11-28T05:20:39.331Z,1.08
2022-11-28T05:25:42.992Z,1.09
2022-11-28T05:30:46.121Z,1.13
2022-11-28T05:35:49.634Z,1.07
2022-11-28T05:40:53.172Z,1.11
2022-11-28T05:45:57.054Z,1.24
2022-11-28T05:51:00.312Z,1.16
2022-11-28T05:56:15.274Z,1.13
2022-11-28T06:01:21.463Z,1.13
2022-11-28T06:06:26.374Z,1.31
2022-11-28T06:11:31.630Z,1.42
2022-11-28T06:16:34.792Z,1.53
2022-11-28T06:21:38.688Z,1.68
2022-11-28T06:26:41.825Z,1.57
2022-11-28T06:31:45.219Z,2.44
2022-11-28T06:36:48.751Z,2.84
2022-11-28T06:41:52.469Z,2.99
2022-11-28T06:46:56.151Z,3.41
2022-11-28T06:51:59.852Z,3.98
2022-11-28T06:57:03.466Z,4.83
2022-11-28T07:02:07.971Z,10.15
2022-11-28T07:07:16.148Z,14.18
2022-11-28T07:12:23.706Z,16.21
2022-11-28T07:17:27.164Z,17.93
2022-11-28T07:22:30.856Z,19.48
2022-11-28T07:27:34.443Z,20.11
2022-11-28T07:32:41.405Z,20.62
2022-11-28T07:37:45.046Z,20.43
2022-11-28T07:42:49.358Z,20.88
2022-11-28T07:47:53.388Z,20.15
2022-11-28T07:52:57.318Z,16.30
2022-11-28T07:58:01.583Z,20.93
2022-11-28T08:03:04.761Z,20.20
2022-11-28T08:08:08.079Z,18.94
2022-11-28T08:13:13.004Z,18.98
2022-11-28T08:18:16.673Z,16.35
2022-11-28T08:23:19.905Z,14.84
2022-11-28T08:28:23.540Z,13.40
2022-11-28T08:33:27.014Z,14.17
2022-11-28T08:38:30.812Z,13.61
2022-11-28T08:43:34.958Z,12.65
2022-11-28T08:48:39.308Z,12.12
2022-11-28T08:53:47.347Z,11.55
2022-11-28T08:58:53.518Z,10.57
2022-11-28T09:03:57.894Z,10.71
2022-11-28T09:09:03.227Z,10.95
2022-11-28T09:14:07.176Z,10.58
2022-11-28T09:19:11.044Z,10.81
2022-11-28T09:24:14.332Z,11.45
2022-11-28T09:29:17.650Z,11.29
2022-11-28T09:34:21.609Z,11.36
2022-11-28T09:39:24.791Z,10.72
2022-11-28T09:44:43.048Z,10.85
2022-11-28T09:49:52.909Z,10.29
2022-11-28T09:55:31.609Z,10.36
2022-11-28T10:00:46.179Z,10.32
2022-11-28T10:06:14.539Z,10.64
2022-11-28T10:11:27.358Z,10.23
2022-11-28T10:16:36.597Z,10.45
2022-11-28T10:21:43.571Z,10.61
2022-11-28T10:26:52.265Z,10.81
2022-11-28T10:31:59.441Z,10.69
2022-11-28T10:37:26.934Z,10.78
2022-11-28T10:42:42.595Z,10.58
2022-11-28T10:48:38.353Z,10.52
2022-11-28T10:53:57.568Z,10.35
2022-11-28T10:59:16.124Z,10.04
2022-11-28T11:04:23.070Z,9.89
2022-11-28T11:09:26.389Z,9.57
2022-11-28T11:14:36.529Z,9.57
2022-11-28T11:19:41.093Z,9.45
2022-11-28T11:25:03.927Z,9.63
2022-11-28T11:30:27.771Z,9.39
2022-11-28T11:35:36.936Z,9.39
2022-11-28T11:40:40.537Z,9.20
2022-11-28T11:45:47.233Z,9.30
2022-11-28T11:50:56.445Z,9.34
2022-11-28T11:56:03.647Z,9.30
2022-11-28T12:01:08.541Z,9.28
2022-11-28T12:06:18.827Z,9.31
2022-11-28T12:11:24.564Z,9.51
2022-11-28T12:16:39.396Z,9.65
2022-11-28T12:21:45.382Z,10.01
2022-11-28T12:27:07.712Z,10.28
2022-11-28T12:32:26.684Z,10.33
2022-11-28T12:38:14.276Z,10.11
2022-11-28T12:43:43.247Z,10.21
2022-11-28T12:49:00.167Z,10.09
2022-11-28T12:54:27.923Z,10.07
2022-11-28T12:59:43.985Z,9.98
2022-11-28T13:05:11.012Z,10.07
2022-11-28T13:10:45.151Z,9.90
2022-11-28T13:15:59.534Z,9.77
2022-11-28T13:21:29.228Z,9.51
2022-11-28T13:26:37.899Z,9.38
2022-11-28T13:31:47.369Z,9.26
2022-11-28T13:43:03.533Z,8.92
2022-11-28T13:49:12.557Z,8.89
2022-11-28T13:54:22.186Z,9.05
2022-11-28T13:59:26.432Z,9.20
2022-11-28T14:04:44.600Z,9.20
2022-11-28T14:09:58.698Z,9.05
2022-11-28T14:15:20.961Z,8.87
2022-11-28T14:20:34.205Z,8.88
2022-11-28T14:25:47.004Z,8.82
2022-11-28T14:30:56.613Z,8.61
2022-11-28T14:36:08.022Z,8.65
2022-11-28T14:41:15.326Z,8.47
2022-11-28T14:46:30.006Z,8.44
2022-11-28T14:52:00.023Z,8.29
2022-11-28T14:57:19.981Z,8.20
2022-11-28T15:02:47.360Z,8.25
2022-11-28T15:08:00.376Z,8.15
2022-11-28T15:13:24.661Z,8.07
2022-11-28T15:18:31.267Z,8.06
2022-11-28T15:23:37.509Z,8.05
2022-11-28T15:28:43.984Z,7.94
2022-11-28T15:33:49.122Z,7.89
2022-11-28T15:38:55.245Z,7.87
2022-11-28T15:43:59.243Z,7.87
2022-11-28T15:49:05.066Z,7.88
2022-11-28T15:54:41.780Z,7.85
2022-11-28T15:59:46.887Z,7.77
2022-11-28T16:04:55.964Z,7.80
2022-11-28T16:10:05.962Z,7.78
2022-11-28T16:15:19.714Z,7.69
2022-11-28T16:20:25.846Z,7.72
2022-11-28T16:25:30.976Z,7.68
2022-11-28T16:30:43.245Z,7.68
2022-11-28T16:35:46.841Z,7.58
2022-11-28T16:41:03.852Z,7.53
2022-11-28T16:46:18.721Z,7.43
2022-11-28T16:51:22.681Z,7.46
2022-11-28T16:56:43.121Z,7.47
2022-11-28T17:01:48.982Z,7.43
2022-11-28T17:06:54.684Z,7.36
2022-11-28T17:12:04.121Z,7.26
2022-11-28T17:17:14.248Z,7.20
2022-11-28T17:22:21.635Z,7.10
2022-11-28T17:27:24.941Z,6.98
2022-11-28T17:32:28.613Z,6.85
2022-11-28T17:37:32.093Z,6.89
2022-11-28T17:42:36.067Z,6.96
2022-11-28T17:47:40.408Z,6.92
2022-11-28T17:52:44.200Z,6.87
2022-11-28T17:57:47.791Z,6.83
2022-11-28T18:02:53.889Z,6.74
2022-11-28T18:07:57.914Z,6.63
2022-11-28T18:13:03.045Z,6.56
2022-11-28T18:18:07.730Z,6.61
2022-11-28T18:23:13.081Z,6.64
2022-11-28T18:28:19.002Z,6.69
2022-11-28T18:33:24.868Z,6.68
2022-11-28T18:38:29.064Z,6.75
2022-11-28T18:43:34.450Z,6.80
2022-11-28T18:48:42.860Z,6.82
2022-11-28T18:53:46.981Z,6.87
2022-11-28T18:58:52.292Z,6.92
2022-11-28T19:03:59.316Z,6.91
2022-11-28T19:09:06.804Z,7.01
2022-11-28T19:14:17.180Z,6.92
2022-11-28T19:19:21.341Z,7.00
2022-11-28T19:24:25.214Z,7.03
2022-11-28T19:29:29.564Z,7.04
2022-11-28T19:34:32.727Z,7.07
2022-11-28T19:39:36.852Z,7.06
2022-11-28T19:44:39.935Z,7.09
2022-11-28T19:49:43.767Z,7.08
2022-11-28T19:54:47.764Z,7.10
2022-11-28T19:59:52.291Z,7.12
2022-11-28T20:04:55.564Z,7.15
2022-11-28T20:09:58.687Z,7.10
2022-11-28T20:15:02.741Z,7.12
2022-11-28T20:20:07.259Z,6.98
2022-11-28T20:25:12.096Z,7.10
2022-11-28T20:30:17.280Z,7.18
2022-11-28T20:35:20.390Z,7.15
2022-11-28T20:40:25.042Z,7.14
2022-11-28T20:45:28.246Z,7.15
2022-11-28T20:50:32.230Z,7.11
2022-11-28T20:55:35.830Z,7.09
2022-11-28T21:00:39.440Z,7.12
2022-11-28T21:05:43.621Z,7.15
2022-11-28T21:10:46.776Z,7.14
2022-11-28T21:15:52.922Z,7.10
2022-11-28T21:20:56.538Z,7.07
2022-11-28T21:26:05.129Z,7.14
2022-11-28T21:31:18.189Z,7.10
2022-11-28T21:36:22.353Z,7.05
2022-11-28T21:41:33.517Z,7.11
2022-11-28T21:46:36.975Z,7.07
2022-11-28T21:51:41.092Z,6.94
2022-11-28T21:56:44.634Z,6.95
2022-11-28T22:01:49.027Z,6.73
2022-11-28T22:06:52.261Z,6.51
2022-11-28T22:11:55.381Z,6.23
2022-11-28T22:16:58.726Z,5.88
2022-11-28T22:22:01.819Z,5.70
2022-11-28T22:27:06.017Z,5.39
2022-11-28T22:32:10.185Z,5.08
2022-11-28T22:37:13.773Z,4.97
2022-11-28T22:42:17.453Z,4.88
2022-11-28T22:47:20.802Z,4.91
2022-11-28T22:52:23.985Z,5.12
2022-11-28T22:57:27.569Z,5.16
2022-11-28T23:02:31.727Z,5.21
2022-11-28T23:07:35.217Z,5.26
2022-11-28T23:12:40.574Z,5.27
2022-11-28T23:17:44.679Z,5.59
2022-11-28T23:22:48.992Z,5.70
2022-11-28T23:27:52.957Z,5.70
2022-11-28T23:32:56.336Z,5.70
2022-11-28T23:38:00.003Z,5.37
2022-11-28T23:43:03.157Z,5.66
2022-11-28T23:48:06.842Z,5.78
2022-11-28T23:53:09.987Z,5.82
2022-11-28T23:58:15.711Z,5.87
